sensor_id;sensor_type;location;lat;lon;timestamp;temperature;humidity
10344;DHT22;5217;43.960;10.954;2023-03-20T00:02:13;16.60;99.90
10344;DHT22;5217;43.960;10.954;2023-03-20T00:04:44;16.60;99.90
10344;DHT22;5217;43.960;10.954;2023-03-20T00:07:13;16.60;99.90
10344;DHT22;5217;43.960;10.954;2023-03-20T00:09:43;16.60;99.90
10344;DHT22;5217;43.960;10.954;2023-03-20T00:12:14;16.60;99.90
10344;DHT22;5217;43.960;10.954;2023-03-20T00:14:43;16.60;99.90
10344;DHT22;5217;43.960;10.954;2023-03-20T00:17:13;16.60;99.90
10344;DHT22;5217;43.960;10.954;2023-03-20T00:19:44;16.60;99.90
10344;DHT22;5217;43.960;10.954;2023-03-20T00:22:13;16.60;99.90
10344;DHT22;5217;43.960;10.954;2023-03-20T00:24:42;16.60;99.90
10344;DHT22;5217;43.960;10.954;2023-03-20T00:27:13;16.60;99.90
10344;DHT22;5217;43.960;10.954;2023-03-20T00:29:42;16.60;99.90
10344;DHT22;5217;43.960;10.954;2023-03-20T00:32:12;16.60;99.90
10344;DHT22;5217;43.960;10.954;2023-03-20T00:34:42;16.60;99.90
10344;DHT22;5217;43.960;10.954;2023-03-20T00:37:11;16.60;99.90
10344;DHT22;5217;43.960;10.954;2023-03-20T00:39:39;16.60;99.90
10344;DHT22;5217;43.960;10.954;2023-03-20T00:42:15;16.60;99.90
10344;DHT22;5217;43.960;10.954;2023-03-20T00:44:48;16.60;99.90
10344;DHT22;5217;43.960;10.954;2023-03-20T00:47:19;16.60;99.90
10344;DHT22;5217;43.960;10.954;2023-03-20T00:49:50;16.60;99.90
10344;DHT22;5217;43.960;10.954;2023-03-20T00:52:21;16.60;99.90
10344;DHT22;5217;43.960;10.954;2023-03-20T00:54:49;16.60;99.90
10344;DHT22;5217;43.960;10.954;2023-03-20T00:57:22;16.60;99.90
10344;DHT22;5217;43.960;10.954;2023-03-20T00:59:55;16.60;99.90
10344;DHT22;5217;43.960;10.954;2023-03-20T01:02:26;16.50;99.90
10344;DHT22;5217;43.960;10.954;2023-03-20T01:04:57;16.60;99.90
10344;DHT22;5217;43.960;10.954;2023-03-20T01:07:26;16.60;99.90
10344;DHT22;5217;43.960;10.954;2023-03-20T01:09:55;16.60;99.90
10344;DHT22;5217;43.960;10.954;2023-03-20T01:12:25;16.60;99.90
10344;DHT22;5217;43.960;10.954;2023-03-20T01:14:55;16.60;99.90
10344;DHT22;5217;43.960;10.954;2023-03-20T01:17:25;16.50;99.90
10344;DHT22;5217;43.960;10.954;2023-03-20T01:19:54;16.60;99.90
10344;DHT22;5217;43.960;10.954;2023-03-20T01:22:22;16.60;99.90
10344;DHT22;5217;43.960;10.954;2023-03-20T01:24:51;16.50;99.90
10344;DHT22;5217;43.960;10.954;2023-03-20T01:27:19;16.60;99.90
10344;DHT22;5217;43.960;10.954;2023-03-20T01:29:49;16.50;99.90
10344;DHT22;5217;43.960;10.954;2023-03-20T01:32:18;16.50;99.90
10344;DHT22;5217;43.960;10.954;2023-03-20T01:34:47;16.60;99.90
10344;DHT22;5217;43.960;10.954;2023-03-20T01:37:21;16.60;99.90
10344;DHT22;5217;43.960;10.954;2023-03-20T01:39:50;16.50;99.90
10344;DHT22;5217;43.960;10.954;2023-03-20T01:42:18;16.50;99.90
10344;DHT22;5217;43.960;10.954;2023-03-20T01:44:48;16.40;99.90
10344;DHT22;5217;43.960;10.954;2023-03-20T01:47:19;16.50;99.90
10344;DHT22;5217;43.960;10.954;2023-03-20T01:50:20;16.50;99.90
10344;DHT22;5217;43.960;10.954;2023-03-20T01:52:53;16.50;99.90
10344;DHT22;5217;43.960;10.954;2023-03-20T01:55:23;16.40;99.90
10344;DHT22;5217;43.960;10.954;2023-03-20T01:57:53;16.50;99.90
10344;DHT22;5217;43.960;10.954;2023-03-20T02:00:25;16.50;99.90
10344;DHT22;5217;43.960;10.954;2023-03-20T02:02:54;16.40;99.90
10344;DHT22;5217;43.960;10.954;2023-03-20T02:05:23;16.40;99.90
10344;DHT22;5217;43.960;10.954;2023-03-20T02:08:02;16.40;99.90
10344;DHT22;5217;43.960;10.954;2023-03-20T02:10:32;16.40;99.90
10344;DHT22;5217;43.960;10.954;2023-03-20T02:13:02;16.40;99.90
10344;DHT22;5217;43.960;10.954;2023-03-20T02:15:32;16.40;99.90
10344;DHT22;5217;43.960;10.954;2023-03-20T02:18:02;16.30;99.90
10344;DHT22;5217;43.960;10.954;2023-03-20T02:20:41;16.40;99.90
10344;DHT22;5217;43.960;10.954;2023-03-20T02:23:44;16.30;99.90
10344;DHT22;5217;43.960;10.954;2023-03-20T02:26:30;16.30;99.90
10344;DHT22;5217;43.960;10.954;2023-03-20T02:29:33;16.30;99.90
10344;DHT22;5217;43.960;10.954;2023-03-20T02:35:34;16.30;99.90
10344;DHT22;5217;43.960;10.954;2023-03-20T02:41:13;16.20;99.90
10344;DHT22;5217;43.960;10.954;2023-03-20T02:43:50;16.20;99.90
10344;DHT22;5217;43.960;10.954;2023-03-20T02:46:27;16.20;99.90
10344;DHT22;5217;43.960;10.954;2023-03-20T02:49:04;16.20;99.90
10344;DHT22;5217;43.960;10.954;2023-03-20T02:51:39;16.20;99.90
10344;DHT22;5217;43.960;10.954;2023-03-20T02:54:15;16.20;99.90
10344;DHT22;5217;43.960;10.954;2023-03-20T02:56:53;16.20;99.90
10344;DHT22;5217;43.960;10.954;2023-03-20T02:59:29;16.20;99.90
10344;DHT22;5217;43.960;10.954;2023-03-20T03:02:03;16.20;99.90
10344;DHT22;5217;43.960;10.954;2023-03-20T03:04:36;16.10;99.90
10344;DHT22;5217;43.960;10.954;2023-03-20T03:07:07;16.20;99.90
10344;DHT22;5217;43.960;10.954;2023-03-20T03:09:43;16.10;99.90
10344;DHT22;5217;43.960;10.954;2023-03-20T03:12:16;16.10;99.90
10344;DHT22;5217;43.960;10.954;2023-03-20T03:14:47;16.10;99.90
10344;DHT22;5217;43.960;10.954;2023-03-20T03:17:18;16.20;99.90
10344;DHT22;5217;43.960;10.954;2023-03-20T03:19:49;16.10;99.90
10344;DHT22;5217;43.960;10.954;2023-03-20T03:22:20;16.10;99.90
10344;DHT22;5217;43.960;10.954;2023-03-20T03:24:51;16.10;99.90
10344;DHT22;5217;43.960;10.954;2023-03-20T03:27:22;16.10;99.90
10344;DHT22;5217;43.960;10.954;2023-03-20T03:29:54;16.10;99.90
10344;DHT22;5217;43.960;10.954;2023-03-20T03:32:27;16.10;99.90
10344;DHT22;5217;43.960;10.954;2023-03-20T03:34:57;16.10;99.90
10344;DHT22;5217;43.960;10.954;2023-03-20T03:37:35;16.00;99.90
10344;DHT22;5217;43.960;10.954;2023-03-20T03:40:16;16.10;99.90
10344;DHT22;5217;43.960;10.954;2023-03-20T03:42:52;16.10;99.90
10344;DHT22;5217;43.960;10.954;2023-03-20T03:45:28;16.00;99.90
10344;DHT22;5217;43.960;10.954;2023-03-20T03:48:02;16.10;99.90
10344;DHT22;5217;43.960;10.954;2023-03-20T03:50:37;16.10;99.90
10344;DHT22;5217;43.960;10.954;2023-03-20T03:53:13;16.00;99.90
10344;DHT22;5217;43.960;10.954;2023-03-20T03:55:46;16.00;99.90
10344;DHT22;5217;43.960;10.954;2023-03-20T03:58:20;16.00;99.90
10344;DHT22;5217;43.960;10.954;2023-03-20T04:00:51;16.00;99.90
10344;DHT22;5217;43.960;10.954;2023-03-20T04:03:23;16.00;99.90
10344;DHT22;5217;43.960;10.954;2023-03-20T04:05:56;16.00;99.90
10344;DHT22;5217;43.960;10.954;2023-03-20T04:08:26;16.00;99.90
10344;DHT22;5217;43.960;10.954;2023-03-20T04:10:56;16.00;99.90
10344;DHT22;5217;43.960;10.954;2023-03-20T04:13:24;16.00;99.90
10344;DHT22;5217;43.960;10.954;2023-03-20T04:15:52;15.90;99.90
10344;DHT22;5217;43.960;10.954;2023-03-20T04:18:22;15.90;99.90
10344;DHT22;5217;43.960;10.954;2023-03-20T04:20:50;15.90;99.90
10344;DHT22;5217;43.960;10.954;2023-03-20T04:23:19;15.90;99.90
10344;DHT22;5217;43.960;10.954;2023-03-20T04:25:48;15.90;99.90
10344;DHT22;5217;43.960;10.954;2023-03-20T04:28:19;15.90;99.90
10344;DHT22;5217;43.960;10.954;2023-03-20T04:30:51;15.90;99.90
10344;DHT22;5217;43.960;10.954;2023-03-20T04:33:20;15.90;99.90
10344;DHT22;5217;43.960;10.954;2023-03-20T04:35:48;15.90;99.90
10344;DHT22;5217;43.960;10.954;2023-03-20T04:38:18;15.90;99.90
10344;DHT22;5217;43.960;10.954;2023-03-20T04:40:46;15.90;99.90
10344;DHT22;5217;43.960;10.954;2023-03-20T04:43:15;15.90;99.90
10344;DHT22;5217;43.960;10.954;2023-03-20T04:45:45;15.90;99.90
10344;DHT22;5217;43.960;10.954;2023-03-20T04:48:14;15.90;99.90
10344;DHT22;5217;43.960;10.954;2023-03-20T04:50:42;15.90;99.90
10344;DHT22;5217;43.960;10.954;2023-03-20T04:53:14;15.90;99.90
10344;DHT22;5217;43.960;10.954;2023-03-20T04:55:43;15.90;99.90
10344;DHT22;5217;43.960;10.954;2023-03-20T04:58:12;15.90;99.90
10344;DHT22;5217;43.960;10.954;2023-03-20T05:00:40;15.90;99.90
10344;DHT22;5217;43.960;10.954;2023-03-20T05:03:10;15.90;99.90
10344;DHT22;5217;43.960;10.954;2023-03-20T05:05:38;15.90;99.90
10344;DHT22;5217;43.960;10.954;2023-03-20T05:08:07;15.90;99.90
10344;DHT22;5217;43.960;10.954;2023-03-20T05:10:35;15.80;99.90
10344;DHT22;5217;43.960;10.954;2023-03-20T05:13:04;15.80;99.90
10344;DHT22;5217;43.960;10.954;2023-03-20T05:15:32;15.80;99.90
10344;DHT22;5217;43.960;10.954;2023-03-20T05:18:01;15.80;99.90
10344;DHT22;5217;43.960;10.954;2023-03-20T05:20:31;15.80;99.90
10344;DHT22;5217;43.960;10.954;2023-03-20T05:22:59;15.80;99.90
10344;DHT22;5217;43.960;10.954;2023-03-20T05:25:31;15.80;99.90
10344;DHT22;5217;43.960;10.954;2023-03-20T05:27:59;15.80;99.90
10344;DHT22;5217;43.960;10.954;2023-03-20T05:30:28;15.80;99.90
10344;DHT22;5217;43.960;10.954;2023-03-20T05:32:56;15.80;99.90
10344;DHT22;5217;43.960;10.954;2023-03-20T05:35:25;15.80;99.90
10344;DHT22;5217;43.960;10.954;2023-03-20T05:37:55;15.80;99.90
10344;DHT22;5217;43.960;10.954;2023-03-20T05:40:24;15.80;99.90
10344;DHT22;5217;43.960;10.954;2023-03-20T05:42:52;15.80;99.90
10344;DHT22;5217;43.960;10.954;2023-03-20T05:45:21;15.80;99.90
10344;DHT22;5217;43.960;10.954;2023-03-20T05:47:49;15.80;99.90
10344;DHT22;5217;43.960;10.954;2023-03-20T05:50:18;15.80;99.90
10344;DHT22;5217;43.960;10.954;2023-03-20T05:52:47;15.80;99.90
10344;DHT22;5217;43.960;10.954;2023-03-20T05:55:17;15.80;99.90
10344;DHT22;5217;43.960;10.954;2023-03-20T05:57:46;15.80;99.90
10344;DHT22;5217;43.960;10.954;2023-03-20T06:00:15;15.80;99.90
10344;DHT22;5217;43.960;10.954;2023-03-20T06:02:44;15.80;99.90
10344;DHT22;5217;43.960;10.954;2023-03-20T06:05:13;15.80;99.90
10344;DHT22;5217;43.960;10.954;2023-03-20T06:07:43;15.80;99.90
10344;DHT22;5217;43.960;10.954;2023-03-20T06:10:11;15.80;99.90
10344;DHT22;5217;43.960;10.954;2023-03-20T06:12:41;15.80;99.90
10344;DHT22;5217;43.960;10.954;2023-03-20T06:15:10;15.80;99.90
10344;DHT22;5217;43.960;10.954;2023-03-20T06:17:39;15.80;99.90
10344;DHT22;5217;43.960;10.954;2023-03-20T06:20:08;15.80;99.90
10344;DHT22;5217;43.960;10.954;2023-03-20T06:22:37;15.70;99.90
10344;DHT22;5217;43.960;10.954;2023-03-20T06:25:06;15.80;99.90
10344;DHT22;5217;43.960;10.954;2023-03-20T06:27:34;15.80;99.90
10344;DHT22;5217;43.960;10.954;2023-03-20T06:30:06;15.80;99.90
10344;DHT22;5217;43.960;10.954;2023-03-20T06:32:35;15.80;99.90
10344;DHT22;5217;43.960;10.954;2023-03-20T06:35:04;15.80;99.90
10344;DHT22;5217;43.960;10.954;2023-03-20T06:37:33;15.80;99.90
10344;DHT22;5217;43.960;10.954;2023-03-20T06:40:07;15.90;99.90
10344;DHT22;5217;43.960;10.954;2023-03-20T06:42:36;15.90;99.90
10344;DHT22;5217;43.960;10.954;2023-03-20T06:45:07;15.90;99.90
10344;DHT22;5217;43.960;10.954;2023-03-20T06:47:37;15.90;99.90
10344;DHT22;5217;43.960;10.954;2023-03-20T06:50:06;15.90;99.90
10344;DHT22;5217;43.960;10.954;2023-03-20T06:52:36;15.90;99.90
10344;DHT22;5217;43.960;10.954;2023-03-20T06:55:06;15.90;99.90
10344;DHT22;5217;43.960;10.954;2023-03-20T06:57:34;16.00;99.90
10344;DHT22;5217;43.960;10.954;2023-03-20T07:00:04;16.00;99.90
10344;DHT22;5217;43.960;10.954;2023-03-20T07:02:35;16.00;99.90
10344;DHT22;5217;43.960;10.954;2023-03-20T07:05:05;16.00;99.90
10344;DHT22;5217;43.960;10.954;2023-03-20T07:07:34;16.00;99.90
10344;DHT22;5217;43.960;10.954;2023-03-20T07:10:02;16.00;99.90
10344;DHT22;5217;43.960;10.954;2023-03-20T07:12:31;16.00;99.90
10344;DHT22;5217;43.960;10.954;2023-03-20T07:15:00;16.00;99.90
10344;DHT22;5217;43.960;10.954;2023-03-20T07:17:28;16.10;99.90
10344;DHT22;5217;43.960;10.954;2023-03-20T07:19:58;16.00;99.90
10344;DHT22;5217;43.960;10.954;2023-03-20T07:22:29;16.10;99.90
10344;DHT22;5217;43.960;10.954;2023-03-20T07:24:57;16.10;99.90
10344;DHT22;5217;43.960;10.954;2023-03-20T07:27:26;16.10;99.90
10344;DHT22;5217;43.960;10.954;2023-03-20T07:29:54;16.10;99.90
10344;DHT22;5217;43.960;10.954;2023-03-20T07:32:22;16.10;99.90
10344;DHT22;5217;43.960;10.954;2023-03-20T07:34:51;16.10;99.90
10344;DHT22;5217;43.960;10.954;2023-03-20T07:37:21;16.20;99.90
10344;DHT22;5217;43.960;10.954;2023-03-20T07:39:50;16.20;99.90
10344;DHT22;5217;43.960;10.954;2023-03-20T07:42:18;16.10;99.90
10344;DHT22;5217;43.960;10.954;2023-03-20T07:44:47;16.20;99.90
10344;DHT22;5217;43.960;10.954;2023-03-20T07:47:15;16.20;99.90
10344;DHT22;5217;43.960;10.954;2023-03-20T07:49:44;16.20;99.90
10344;DHT22;5217;43.960;10.954;2023-03-20T07:52:12;16.20;99.90
10344;DHT22;5217;43.960;10.954;2023-03-20T07:54:42;16.20;99.90
10344;DHT22;5217;43.960;10.954;2023-03-20T07:57:11;16.20;99.90
10344;DHT22;5217;43.960;10.954;2023-03-20T07:59:39;16.30;99.90
10344;DHT22;5217;43.960;10.954;2023-03-20T08:02:12;16.30;99.90
10344;DHT22;5217;43.960;10.954;2023-03-20T08:04:41;16.30;99.90
10344;DHT22;5217;43.960;10.954;2023-03-20T08:07:10;16.40;99.90
10344;DHT22;5217;43.960;10.954;2023-03-20T08:09:38;16.40;99.90
10344;DHT22;5217;43.960;10.954;2023-03-20T08:12:08;16.40;99.90
10344;DHT22;5217;43.960;10.954;2023-03-20T08:14:36;16.50;99.90
10344;DHT22;5217;43.960;10.954;2023-03-20T08:17:05;16.50;99.90
10344;DHT22;5217;43.960;10.954;2023-03-20T08:19:42;16.50;99.90
10344;DHT22;5217;43.960;10.954;2023-03-20T08:22:11;16.50;99.90
10344;DHT22;5217;43.960;10.954;2023-03-20T08:24:39;16.50;99.90
10344;DHT22;5217;43.960;10.954;2023-03-20T08:27:09;16.50;99.90
10344;DHT22;5217;43.960;10.954;2023-03-20T08:29:37;16.50;99.90
10344;DHT22;5217;43.960;10.954;2023-03-20T08:32:06;16.50;99.90
10344;DHT22;5217;43.960;10.954;2023-03-20T08:34:34;16.50;99.90
10344;DHT22;5217;43.960;10.954;2023-03-20T08:37:03;16.50;99.90
10344;DHT22;5217;43.960;10.954;2023-03-20T08:39:31;16.50;99.90
10344;DHT22;5217;43.960;10.954;2023-03-20T08:42:00;16.50;99.90
10344;DHT22;5217;43.960;10.954;2023-03-20T08:44:30;16.60;99.90
10344;DHT22;5217;43.960;10.954;2023-03-20T08:46:59;16.60;99.90
10344;DHT22;5217;43.960;10.954;2023-03-20T08:49:28;16.60;99.90
10344;DHT22;5217;43.960;10.954;2023-03-20T08:51:56;16.60;99.90
10344;DHT22;5217;43.960;10.954;2023-03-20T08:54:25;16.60;99.90
10344;DHT22;5217;43.960;10.954;2023-03-20T08:56:53;16.60;99.90
10344;DHT22;5217;43.960;10.954;2023-03-20T08:59:22;16.60;99.90
10344;DHT22;5217;43.960;10.954;2023-03-20T09:01:52;16.60;99.90
10344;DHT22;5217;43.960;10.954;2023-03-20T09:04:20;16.70;99.90
10344;DHT22;5217;43.960;10.954;2023-03-20T09:06:49;16.70;99.90
10344;DHT22;5217;43.960;10.954;2023-03-20T09:09:17;16.70;99.90
10344;DHT22;5217;43.960;10.954;2023-03-20T09:11:47;16.70;99.90
10344;DHT22;5217;43.960;10.954;2023-03-20T09:14:16;16.70;99.90
10344;DHT22;5217;43.960;10.954;2023-03-20T09:16:44;16.70;99.90
10344;DHT22;5217;43.960;10.954;2023-03-20T09:19:14;16.80;99.90
10344;DHT22;5217;43.960;10.954;2023-03-20T09:21:42;16.80;99.90
10344;DHT22;5217;43.960;10.954;2023-03-20T09:24:11;16.80;99.90
10344;DHT22;5217;43.960;10.954;2023-03-20T09:26:40;16.80;99.90
10344;DHT22;5217;43.960;10.954;2023-03-20T09:29:08;16.80;99.90
10344;DHT22;5217;43.960;10.954;2023-03-20T09:31:36;16.90;99.90
10344;DHT22;5217;43.960;10.954;2023-03-20T09:34:05;17.00;99.90
10344;DHT22;5217;43.960;10.954;2023-03-20T09:36:35;17.00;99.90
10344;DHT22;5217;43.960;10.954;2023-03-20T09:39:03;17.00;99.90
10344;DHT22;5217;43.960;10.954;2023-03-20T09:41:32;17.00;99.90
10344;DHT22;5217;43.960;10.954;2023-03-20T09:44:36;17.00;99.90
10344;DHT22;5217;43.960;10.954;2023-03-20T09:47:14;17.00;99.90
10344;DHT22;5217;43.960;10.954;2023-03-20T09:50:10;17.10;99.90
10344;DHT22;5217;43.960;10.954;2023-03-20T09:52:47;17.10;99.90
10344;DHT22;5217;43.960;10.954;2023-03-20T09:55:21;17.10;99.90
10344;DHT22;5217;43.960;10.954;2023-03-20T09:57:56;17.10;99.90
10344;DHT22;5217;43.960;10.954;2023-03-20T10:00:27;17.00;99.90
10344;DHT22;5217;43.960;10.954;2023-03-20T10:02:59;17.00;99.90
10344;DHT22;5217;43.960;10.954;2023-03-20T10:05:30;17.10;99.90
10344;DHT22;5217;43.960;10.954;2023-03-20T10:08:05;17.10;99.90
10344;DHT22;5217;43.960;10.954;2023-03-20T10:10:41;17.10;99.90
10344;DHT22;5217;43.960;10.954;2023-03-20T10:13:36;17.00;99.90
10344;DHT22;5217;43.960;10.954;2023-03-20T10:16:14;17.10;99.90
10344;DHT22;5217;43.960;10.954;2023-03-20T10:18:48;17.10;99.90
10344;DHT22;5217;43.960;10.954;2023-03-20T10:21:21;17.10;99.90
10344;DHT22;5217;43.960;10.954;2023-03-20T10:23:58;17.10;99.90
10344;DHT22;5217;43.960;10.954;2023-03-20T10:26:28;17.10;99.90
10344;DHT22;5217;43.960;10.954;2023-03-20T10:29:00;17.10;99.90
10344;DHT22;5217;43.960;10.954;2023-03-20T10:31:36;17.10;99.90
10344;DHT22;5217;43.960;10.954;2023-03-20T10:34:19;17.00;99.90
10344;DHT22;5217;43.960;10.954;2023-03-20T10:36:59;17.00;99.90
10344;DHT22;5217;43.960;10.954;2023-03-20T10:39:42;17.10;99.90
10344;DHT22;5217;43.960;10.954;2023-03-20T10:42:19;17.10;99.90
10344;DHT22;5217;43.960;10.954;2023-03-20T10:44:54;17.10;99.90
10344;DHT22;5217;43.960;10.954;2023-03-20T10:47:29;17.10;99.90
10344;DHT22;5217;43.960;10.954;2023-03-20T10:50:03;17.10;99.90
10344;DHT22;5217;43.960;10.954;2023-03-20T10:52:37;17.20;99.90
10344;DHT22;5217;43.960;10.954;2023-03-20T10:55:10;17.20;99.90
10344;DHT22;5217;43.960;10.954;2023-03-20T10:57:46;17.10;99.90
10344;DHT22;5217;43.960;10.954;2023-03-20T11:00:18;17.10;99.90
10344;DHT22;5217;43.960;10.954;2023-03-20T11:02:48;17.10;99.90
10344;DHT22;5217;43.960;10.954;2023-03-20T11:05:22;17.20;99.90
10344;DHT22;5217;43.960;10.954;2023-03-20T11:08:01;17.20;99.90
10344;DHT22;5217;43.960;10.954;2023-03-20T11:10:33;17.20;99.90
10344;DHT22;5217;43.960;10.954;2023-03-20T11:13:21;17.20;99.90
10344;DHT22;5217;43.960;10.954;2023-03-20T11:15:53;17.20;99.90
10344;DHT22;5217;43.960;10.954;2023-03-20T11:18:24;17.20;99.90
10344;DHT22;5217;43.960;10.954;2023-03-20T11:20:54;17.20;99.90
10344;DHT22;5217;43.960;10.954;2023-03-20T11:23:25;17.20;99.90
10344;DHT22;5217;43.960;10.954;2023-03-20T11:25:58;17.30;99.90
10344;DHT22;5217;43.960;10.954;2023-03-20T11:28:32;17.30;99.90
10344;DHT22;5217;43.960;10.954;2023-03-20T11:31:03;17.30;99.90
10344;DHT22;5217;43.960;10.954;2023-03-20T11:33:36;17.30;99.90
10344;DHT22;5217;43.960;10.954;2023-03-20T11:36:20;17.40;99.90
10344;DHT22;5217;43.960;10.954;2023-03-20T11:38:52;17.60;99.90
10344;DHT22;5217;43.960;10.954;2023-03-20T11:41:27;17.60;99.90
10344;DHT22;5217;43.960;10.954;2023-03-20T11:43:56;17.70;99.90
10344;DHT22;5217;43.960;10.954;2023-03-20T11:46:24;17.80;99.90
10344;DHT22;5217;43.960;10.954;2023-03-20T11:49:05;18.10;99.90
10344;DHT22;5217;43.960;10.954;2023-03-20T11:51:35;18.40;99.90
10344;DHT22;5217;43.960;10.954;2023-03-20T11:54:06;18.50;99.90
10344;DHT22;5217;43.960;10.954;2023-03-20T11:56:50;18.60;99.90
10344;DHT22;5217;43.960;10.954;2023-03-20T11:59:19;18.60;99.90
10344;DHT22;5217;43.960;10.954;2023-03-20T12:01:50;18.60;99.90
10344;DHT22;5217;43.960;10.954;2023-03-20T12:04:26;18.70;99.90
10344;DHT22;5217;43.960;10.954;2023-03-20T12:06:57;18.70;99.90
10344;DHT22;5217;43.960;10.954;2023-03-20T12:09:37;19.00;99.90
10344;DHT22;5217;43.960;10.954;2023-03-20T12:12:17;19.00;99.90
10344;DHT22;5217;43.960;10.954;2023-03-20T12:14:55;19.00;99.90
10344;DHT22;5217;43.960;10.954;2023-03-20T12:17:37;19.00;99.90
10344;DHT22;5217;43.960;10.954;2023-03-20T12:20:18;18.90;99.90
10344;DHT22;5217;43.960;10.954;2023-03-20T12:22:59;18.90;99.90
10344;DHT22;5217;43.960;10.954;2023-03-20T12:25:35;18.80;99.90
10344;DHT22;5217;43.960;10.954;2023-03-20T12:28:13;18.80;99.90
10344;DHT22;5217;43.960;10.954;2023-03-20T12:33:43;18.70;99.90
10344;DHT22;5217;43.960;10.954;2023-03-20T12:36:17;18.70;99.90
10344;DHT22;5217;43.960;10.954;2023-03-20T12:38:46;18.70;99.90
10344;DHT22;5217;43.960;10.954;2023-03-20T12:41:18;18.70;99.90
10344;DHT22;5217;43.960;10.954;2023-03-20T12:44:09;18.70;99.90
10344;DHT22;5217;43.960;10.954;2023-03-20T12:46:44;18.70;99.90
10344;DHT22;5217;43.960;10.954;2023-03-20T12:49:24;18.70;99.90
10344;DHT22;5217;43.960;10.954;2023-03-20T12:52:04;18.70;99.90
10344;DHT22;5217;43.960;10.954;2023-03-20T12:54:48;18.70;99.90
10344;DHT22;5217;43.960;10.954;2023-03-20T12:57:24;18.70;99.90
10344;DHT22;5217;43.960;10.954;2023-03-20T13:00:08;18.70;99.90
10344;DHT22;5217;43.960;10.954;2023-03-20T13:02:47;18.70;99.90
10344;DHT22;5217;43.960;10.954;2023-03-20T13:05:25;18.70;99.90
10344;DHT22;5217;43.960;10.954;2023-03-20T13:08:08;18.70;99.90
10344;DHT22;5217;43.960;10.954;2023-03-20T13:10:39;18.70;99.90
10344;DHT22;5217;43.960;10.954;2023-03-20T13:13:15;18.70;99.90
10344;DHT22;5217;43.960;10.954;2023-03-20T13:15:58;18.70;99.90
10344;DHT22;5217;43.960;10.954;2023-03-20T13:18:39;18.70;99.90
10344;DHT22;5217;43.960;10.954;2023-03-20T13:21:17;18.70;99.90
10344;DHT22;5217;43.960;10.954;2023-03-20T13:23:50;18.70;99.90
10344;DHT22;5217;43.960;10.954;2023-03-20T13:26:29;18.70;99.90
10344;DHT22;5217;43.960;10.954;2023-03-20T13:29:04;18.70;99.90
10344;DHT22;5217;43.960;10.954;2023-03-20T13:31:43;18.70;99.90
10344;DHT22;5217;43.960;10.954;2023-03-20T13:34:23;18.70;99.90
10344;DHT22;5217;43.960;10.954;2023-03-20T13:37:09;18.70;99.90
10344;DHT22;5217;43.960;10.954;2023-03-20T13:40:02;18.80;99.90
10344;DHT22;5217;43.960;10.954;2023-03-20T13:42:35;19.00;99.90
10344;DHT22;5217;43.960;10.954;2023-03-20T13:45:18;19.70;99.90
10344;DHT22;5217;43.960;10.954;2023-03-20T13:47:50;20.30;99.90
10344;DHT22;5217;43.960;10.954;2023-03-20T13:50:33;20.50;99.20
10344;DHT22;5217;43.960;10.954;2023-03-20T13:53:12;20.60;98.80
10344;DHT22;5217;43.960;10.954;2023-03-20T13:55:48;20.40;98.40
10344;DHT22;5217;43.960;10.954;2023-03-20T13:58:34;20.30;98.00
10344;DHT22;5217;43.960;10.954;2023-03-20T14:01:08;20.10;97.90
10344;DHT22;5217;43.960;10.954;2023-03-20T14:03:43;20.00;98.10
10344;DHT22;5217;43.960;10.954;2023-03-20T14:06:16;20.00;98.00
10344;DHT22;5217;43.960;10.954;2023-03-20T14:08:51;20.10;97.80
10344;DHT22;5217;43.960;10.954;2023-03-20T14:11:27;20.10;97.90
10344;DHT22;5217;43.960;10.954;2023-03-20T14:14:06;20.10;97.50
10344;DHT22;5217;43.960;10.954;2023-03-20T14:16:35;20.10;97.30
10344;DHT22;5217;43.960;10.954;2023-03-20T14:19:07;20.10;96.70
10344;DHT22;5217;43.960;10.954;2023-03-20T14:21:39;20.10;96.60
10344;DHT22;5217;43.960;10.954;2023-03-20T14:24:14;20.80;96.30
10344;DHT22;5217;43.960;10.954;2023-03-20T14:26:48;21.60;95.70
10344;DHT22;5217;43.960;10.954;2023-03-20T14:29:34;22.40;94.80
10344;DHT22;5217;43.960;10.954;2023-03-20T14:32:20;22.80;94.30
10344;DHT22;5217;43.960;10.954;2023-03-20T14:34:52;22.90;93.40
10344;DHT22;5217;43.960;10.954;2023-03-20T14:37:28;23.40;92.00
10344;DHT22;5217;43.960;10.954;2023-03-20T14:40:02;23.70;91.60
10344;DHT22;5217;43.960;10.954;2023-03-20T14:42:46;23.60;91.60
10344;DHT22;5217;43.960;10.954;2023-03-20T14:45:39;23.20;91.30
10344;DHT22;5217;43.960;10.954;2023-03-20T14:48:25;23.10;91.20
10344;DHT22;5217;43.960;10.954;2023-03-20T14:51:08;22.90;91.00
10344;DHT22;5217;43.960;10.954;2023-03-20T14:53:40;23.30;90.80
10344;DHT22;5217;43.960;10.954;2023-03-20T14:56:10;23.80;90.10
10344;DHT22;5217;43.960;10.954;2023-03-20T14:58:57;24.50;89.50
10344;DHT22;5217;43.960;10.954;2023-03-20T15:01:55;25.00;87.30
10344;DHT22;5217;43.960;10.954;2023-03-20T15:04:29;25.60;85.40
10344;DHT22;5217;43.960;10.954;2023-03-20T15:07:03;25.90;84.90
10344;DHT22;5217;43.960;10.954;2023-03-20T15:09:34;26.20;83.20
10344;DHT22;5217;43.960;10.954;2023-03-20T15:12:03;26.40;82.10
10344;DHT22;5217;43.960;10.954;2023-03-20T15:14:39;26.50;81.50
10344;DHT22;5217;43.960;10.954;2023-03-20T15:17:17;26.50;80.70
10344;DHT22;5217;43.960;10.954;2023-03-20T15:19:46;26.30;80.20
10344;DHT22;5217;43.960;10.954;2023-03-20T15:22:18;25.80;80.10
10344;DHT22;5217;43.960;10.954;2023-03-20T15:24:52;25.50;79.80
10344;DHT22;5217;43.960;10.954;2023-03-20T15:27:23;25.00;80.20
10344;DHT22;5217;43.960;10.954;2023-03-20T15:29:56;24.60;80.10
10344;DHT22;5217;43.960;10.954;2023-03-20T15:32:27;24.20;80.70
10344;DHT22;5217;43.960;10.954;2023-03-20T15:34:56;23.90;81.80
10344;DHT22;5217;43.960;10.954;2023-03-20T15:37:26;23.80;81.40
10344;DHT22;5217;43.960;10.954;2023-03-20T15:39:54;23.50;81.80
10344;DHT22;5217;43.960;10.954;2023-03-20T15:42:25;23.40;83.20
10344;DHT22;5217;43.960;10.954;2023-03-20T15:44:55;23.20;84.10
10344;DHT22;5217;43.960;10.954;2023-03-20T15:47:24;23.00;84.60
10344;DHT22;5217;43.960;10.954;2023-03-20T15:49:54;22.80;84.50
10344;DHT22;5217;43.960;10.954;2023-03-20T15:52:30;22.70;84.20
10344;DHT22;5217;43.960;10.954;2023-03-20T15:55:03;22.60;84.40
10344;DHT22;5217;43.960;10.954;2023-03-20T15:57:34;22.50;85.60
10344;DHT22;5217;43.960;10.954;2023-03-20T16:00:05;22.40;85.90
10344;DHT22;5217;43.960;10.954;2023-03-20T16:02:35;22.40;86.30
10344;DHT22;5217;43.960;10.954;2023-03-20T16:05:09;22.30;86.50
10344;DHT22;5217;43.960;10.954;2023-03-20T16:07:41;22.20;86.40
10344;DHT22;5217;43.960;10.954;2023-03-20T16:10:16;22.10;86.70
10344;DHT22;5217;43.960;10.954;2023-03-20T16:12:47;22.00;87.20
10344;DHT22;5217;43.960;10.954;2023-03-20T16:15:16;21.90;86.50